createdAt,value
2023-04-26T00:01:44.413Z,3.13
2023-04-26T00:04:11.528Z,3.40
2023-04-26T00:06:38.400Z,2.97
2023-04-26T00:09:05.704Z,3.37
2023-04-26T00:11:32.599Z,3.30
2023-04-26T00:13:59.875Z,3.17
2023-04-26T00:16:26.693Z,3.03
2023-04-26T00:18:54.805Z,3.40
2023-04-26T00:21:21.879Z,2.90
2023-04-26T00:23:48.783Z,3.13
2023-04-26T00:26:15.683Z,3.10
2023-04-26T00:28:42.553Z,2.77
2023-04-26T00:31:14.160Z,2.90
2023-04-26T00:33:41.066Z,3.63
2023-04-26T00:36:08.202Z,3.43
2023-04-26T00:38:35.088Z,3.13
2023-04-26T00:41:02.297Z,2.93
2023-04-26T00:43:29.145Z,3.13
2023-04-26T00:45:56.382Z,3.40
2023-04-26T00:48:23.631Z,2.67
2023-04-26T00:50:50.688Z,3.37
2023-04-26T00:53:17.981Z,3.37
2023-04-26T00:55:45.151Z,2.87
2023-04-26T00:58:12.094Z,3.23
2023-04-26T01:00:38.941Z,3.63
2023-04-26T01:03:05.848Z,2.93
2023-04-26T01:05:32.974Z,3.20
2023-04-26T01:08:02.333Z,2.87
2023-04-26T01:10:32.804Z,3.40
2023-04-26T01:13:00.296Z,3.37
2023-04-26T01:15:33.840Z,3.40
2023-04-26T01:18:00.852Z,3.23
2023-04-26T01:20:27.704Z,3.50
2023-04-26T01:22:54.995Z,3.40
2023-04-26T01:25:21.913Z,3.60
2023-04-26T01:27:48.818Z,4.43
2023-04-26T01:30:16.147Z,3.30
2023-04-26T01:32:43.217Z,5.07
2023-04-26T01:35:10.122Z,4.03
2023-04-26T01:37:37.137Z,3.97
2023-04-26T01:40:07.238Z,3.47
2023-04-26T01:42:34.184Z,3.13
2023-04-26T01:45:01.199Z,3.50
2023-04-26T01:47:48.087Z,3.33
2023-04-26T01:50:14.995Z,3.20
2023-04-26T01:52:41.825Z,3.30
2023-04-26T01:55:09.439Z,3.33
2023-04-26T01:57:37.500Z,3.77
2023-04-26T02:00:05.082Z,3.47
2023-04-26T02:02:40.160Z,3.60
2023-04-26T02:05:09.565Z,2.93
2023-04-26T02:07:36.413Z,3.37
2023-04-26T02:10:03.738Z,3.47
2023-04-26T02:12:30.608Z,3.80
2023-04-26T02:14:57.513Z,3.43
2023-04-26T02:17:26.686Z,4.20
2023-04-26T02:19:53.851Z,4.13
2023-04-26T02:22:21.985Z,3.80
2023-04-26T02:24:50.477Z,4.17
2023-04-26T02:27:17.344Z,3.83
2023-04-26T02:29:44.976Z,4.17
2023-04-26T02:32:13.357Z,4.10
2023-04-26T02:34:40.223Z,4.07
2023-04-26T02:37:07.845Z,3.67
2023-04-26T02:39:34.722Z,4.00
2023-04-26T02:42:01.930Z,4.40
2023-04-26T02:44:31.640Z,4.23
2023-04-26T02:46:58.611Z,4.30
2023-04-26T02:49:25.641Z,4.50
2023-04-26T02:51:53.209Z,4.83
2023-04-26T02:54:20.212Z,4.63
2023-04-26T02:56:47.464Z,4.90
2023-04-26T02:59:14.401Z,4.53
2023-04-26T03:01:42.435Z,4.43
2023-04-26T03:04:09.996Z,4.60
2023-04-26T03:06:37.893Z,5.10
2023-04-26T03:09:05.971Z,4.87
2023-04-26T03:11:33.010Z,5.10
2023-04-26T03:13:59.896Z,4.80
2023-04-26T03:16:28.079Z,4.40
2023-04-26T03:18:55.498Z,4.83
2023-04-26T03:21:22.423Z,4.77
2023-04-26T03:23:49.292Z,4.23
2023-04-26T03:26:16.295Z,4.67
2023-04-26T03:28:43.250Z,5.77
2023-04-26T03:31:10.134Z,4.33
2023-04-26T03:33:38.034Z,4.93
2023-04-26T03:36:05.182Z,4.87
2023-04-26T03:38:32.102Z,4.77
2023-04-26T03:40:59.034Z,4.83
2023-04-26T03:43:26.065Z,4.60
2023-04-26T03:45:52.944Z,5.30
2023-04-26T03:48:19.910Z,4.87
2023-04-26T03:50:46.895Z,5.10
2023-04-26T03:53:13.899Z,5.10
2023-04-26T03:55:41.282Z,4.47
2023-04-26T03:58:08.336Z,4.10
2023-04-26T04:00:38.955Z,4.57
2023-04-26T04:03:07.479Z,4.97
2023-04-26T04:05:34.779Z,4.50
2023-04-26T04:08:02.371Z,4.57
2023-04-26T04:10:30.846Z,4.50
2023-04-26T04:12:57.707Z,4.50
2023-04-26T04:15:25.358Z,4.50
2023-04-26T04:17:54.006Z,4.90
2023-04-26T04:20:21.619Z,5.27
2023-04-26T04:22:48.706Z,5.13
2023-04-26T04:25:16.596Z,5.00
2023-04-26T04:27:43.808Z,4.40
2023-04-26T04:30:12.340Z,5.20
2023-04-26T04:32:40.556Z,3.93
2023-04-26T04:35:08.286Z,3.93
2023-04-26T04:37:35.382Z,4.50
2023-04-26T04:40:02.628Z,4.43
2023-04-26T04:42:32.613Z,5.27
2023-04-26T04:45:00.949Z,7.73
2023-04-26T04:47:29.188Z,6.57
2023-04-26T04:49:56.490Z,5.87
2023-04-26T04:52:23.280Z,4.60
2023-04-26T04:54:50.242Z,4.00
2023-04-26T04:57:17.791Z,4.00
2023-04-26T04:59:46.960Z,4.50
2023-04-26T05:02:14.186Z,4.83
2023-04-26T05:04:41.319Z,4.23
2023-04-26T05:07:08.335Z,4.93
2023-04-26T05:09:35.896Z,5.20
2023-04-26T05:12:03.432Z,4.93
2023-04-26T05:14:31.371Z,4.30
2023-04-26T05:16:58.440Z,4.10
2023-04-26T05:19:26.703Z,5.07
2023-04-26T05:21:53.827Z,4.33
2023-04-26T05:24:20.755Z,4.53
2023-04-26T05:26:47.841Z,3.47
2023-04-26T05:29:53.087Z,3.87
2023-04-26T05:32:43.813Z,4.40
2023-04-26T05:35:15.897Z,3.60
2023-04-26T05:37:42.741Z,3.40
2023-04-26T05:40:12.640Z,4.63
2023-04-26T05:42:40.196Z,4.23
2023-04-26T05:45:08.745Z,3.90
2023-04-26T05:47:35.727Z,3.10
2023-04-26T05:50:02.612Z,4.63
2023-04-26T05:52:29.496Z,3.83
2023-04-26T05:54:57.336Z,4.30
2023-04-26T05:57:25.359Z,3.47
2023-04-26T05:59:53.387Z,3.60
2023-04-26T06:02:22.429Z,4.00
2023-04-26T06:04:50.407Z,4.20
2023-04-26T06:07:18.485Z,4.57
2023-04-26T06:09:47.263Z,4.13
2023-04-26T06:12:14.708Z,4.10
2023-04-26T06:14:44.208Z,4.10
2023-04-26T06:17:16.231Z,4.00
2023-04-26T06:19:43.409Z,3.27
2023-04-26T06:22:10.205Z,2.80
2023-04-26T06:24:37.710Z,2.77
2023-04-26T06:27:04.524Z,2.93
2023-04-26T06:29:33.021Z,3.00
2023-04-26T06:31:59.840Z,2.27
2023-04-26T06:34:27.374Z,2.70
2023-04-26T06:36:54.511Z,2.70
2023-04-26T06:39:23.917Z,2.83
2023-04-26T06:41:52.591Z,2.50
2023-04-26T06:44:27.636Z,2.70
2023-04-26T06:47:01.740Z,2.70
2023-04-26T06:49:28.831Z,3.80
2023-04-26T06:51:55.641Z,1.80
2023-04-26T06:54:22.557Z,2.07
2023-04-26T06:56:49.424Z,2.17
2023-04-26T06:59:16.310Z,2.07
2023-04-26T07:01:43.178Z,2.27
2023-04-26T07:04:13.698Z,2.33
2023-04-26T07:06:40.877Z,1.40
2023-04-26T07:09:08.779Z,1.97
2023-04-26T07:11:35.738Z,1.63
2023-04-26T07:14:02.646Z,1.50
2023-04-26T07:16:29.782Z,1.90
2023-04-26T07:18:59.582Z,1.60
2023-04-26T07:21:27.117Z,1.37
2023-04-26T07:23:57.269Z,2.00
2023-04-26T07:26:25.175Z,2.00
2023-04-26T07:28:52.688Z,1.73
2023-04-26T07:31:20.040Z,2.10
2023-04-26T07:33:47.022Z,1.90
2023-04-26T07:36:13.923Z,2.03
2023-04-26T07:38:41.359Z,1.67
2023-04-26T07:41:08.224Z,2.80
2023-04-26T07:43:35.174Z,2.33
2023-04-26T07:46:02.436Z,2.53
2023-04-26T07:48:29.536Z,2.10
2023-04-26T07:50:56.584Z,1.60
2023-04-26T07:53:23.592Z,1.70
2023-04-26T07:55:51.749Z,1.67
2023-04-26T07:58:19.562Z,2.20
2023-04-26T08:00:46.428Z,1.50
2023-04-26T08:03:15.335Z,1.43
2023-04-26T08:05:42.441Z,1.60
2023-04-26T08:08:09.818Z,1.27
2023-04-26T08:10:38.381Z,1.37
2023-04-26T08:13:05.382Z,2.47
2023-04-26T08:15:32.796Z,1.53
2023-04-26T08:17:59.720Z,1.30
2023-04-26T08:20:27.260Z,1.20
2023-04-26T08:22:57.496Z,1.10
2023-04-26T08:25:24.532Z,1.13
2023-04-26T08:27:51.438Z,1.47
2023-04-26T08:30:19.295Z,1.30
2023-04-26T08:32:46.589Z,1.03
2023-04-26T08:35:13.548Z,0.97
2023-04-26T08:37:40.359Z,0.80
2023-04-26T08:40:10.854Z,1.20
2023-04-26T08:42:39.872Z,0.83
2023-04-26T08:45:07.911Z,1.50
2023-04-26T08:47:47.791Z,1.60
2023-04-26T08:50:15.368Z,0.93
2023-04-26T08:52:43.145Z,1.33
2023-04-26T08:55:10.545Z,1.00
2023-04-26T08:57:37.922Z,0.90
2023-04-26T09:00:06.034Z,1.57
2023-04-26T09:02:33.794Z,1.00
2023-04-26T09:05:00.978Z,1.00
2023-04-26T09:07:32.294Z,0.93
2023-04-26T09:09:59.523Z,1.00
2023-04-26T09:12:26.480Z,1.03
2023-04-26T09:14:53.485Z,0.80
2023-04-26T09:17:27.227Z,0.90
2023-04-26T09:19:54.512Z,1.33
2023-04-26T09:22:31.553Z,1.10
2023-04-26T09:24:59.031Z,0.80
2023-04-26T09:27:33.327Z,0.90
2023-04-26T09:30:06.139Z,0.90
2023-04-26T09:32:50.399Z,0.97
2023-04-26T09:35:27.369Z,0.80
2023-04-26T09:37:59.359Z,1.10
2023-04-26T09:40:28.463Z,1.10
2023-04-26T09:42:58.396Z,0.80
2023-04-26T09:45:25.943Z,0.93
2023-04-26T09:47:52.953Z,0.80
2023-04-26T09:50:27.232Z,0.90
2023-04-26T09:52:54.104Z,0.77
2023-04-26T09:55:34.623Z,0.90
2023-04-26T09:58:09.590Z,1.10
2023-04-26T10:00:38.607Z,1.47
2023-04-26T10:03:06.605Z,1.10
2023-04-26T10:05:34.145Z,1.53
2023-04-26T10:08:01.905Z,1.00
2023-04-26T10:10:28.874Z,1.13
2023-04-26T10:12:55.792Z,0.90
2023-04-26T10:15:22.977Z,1.07
2023-04-26T10:17:51.940Z,1.20
2023-04-26T10:20:21.484Z,1.20
2023-04-26T10:22:53.209Z,1.20
2023-04-26T10:25:20.161Z,1.20
2023-04-26T10:27:47.657Z,1.13
2023-04-26T10:30:15.804Z,1.00
2023-04-26T10:32:57.736Z,1.10
2023-04-26T10:35:26.425Z,1.00
2023-04-26T10:38:02.079Z,1.10
2023-04-26T10:40:37.693Z,1.30
2023-04-26T10:43:16.950Z,1.27
2023-04-26T10:45:44.627Z,1.00
2023-04-26T10:48:18.653Z,1.70
2023-04-26T10:51:12.723Z,1.17
2023-04-26T10:53:46.038Z,1.50
2023-04-26T10:56:29.018Z,1.43
2023-04-26T10:59:33.275Z,1.90
2023-04-26T11:02:02.694Z,1.57
2023-04-26T11:04:49.787Z,1.37
2023-04-26T11:07:16.736Z,2.77
2023-04-26T11:09:49.883Z,1.27
2023-04-26T11:12:16.907Z,1.10
2023-04-26T11:14:44.460Z,0.90
2023-04-26T11:17:11.780Z,1.63
2023-04-26T11:19:38.907Z,5.57
2023-04-26T11:22:07.047Z,2.30
2023-04-26T11:24:36.960Z,1.00
2023-04-26T11:27:10.501Z,0.77
2023-04-26T11:29:37.838Z,1.83
2023-04-26T11:32:04.968Z,1.83
2023-04-26T11:34:41.951Z,1.40
2023-04-26T11:37:08.879Z,1.57
2023-04-26T11:39:36.233Z,1.70
2023-04-26T11:42:09.518Z,1.20
2023-04-26T11:44:37.538Z,1.60
2023-04-26T11:47:05.091Z,0.90
2023-04-26T11:49:32.993Z,1.00
2023-04-26T11:52:00.563Z,2.17
2023-04-26T11:54:36.026Z,1.00
2023-04-26T11:57:15.351Z,3.03
2023-04-26T11:59:44.122Z,1.10
2023-04-26T12:02:12.092Z,1.20
2023-04-26T12:04:42.610Z,1.03
2023-04-26T12:07:09.910Z,6.53
2023-04-26T12:09:40.571Z,0.97
2023-04-26T12:12:07.651Z,1.10
2023-04-26T12:14:35.109Z,1.17
2023-04-26T12:17:03.479Z,0.93
2023-04-26T12:19:40.177Z,0.80
2023-04-26T12:22:07.465Z,1.87
2023-04-26T12:24:36.941Z,0.90
2023-04-26T12:27:07.041Z,0.90
2023-04-26T12:29:34.364Z,1.53
2023-04-26T12:32:01.755Z,0.97
2023-04-26T12:34:28.902Z,1.20
2023-04-26T12:36:55.999Z,1.50
2023-04-26T12:39:22.975Z,0.90
2023-04-26T12:41:49.979Z,1.10
2023-04-26T12:44:18.351Z,0.80
2023-04-26T12:46:46.692Z,1.50
2023-04-26T12:49:13.537Z,0.90
2023-04-26T12:51:40.902Z,0.90
2023-04-26T12:54:07.996Z,1.00
2023-04-26T12:56:38.109Z,2.70
2023-04-26T12:59:05.014Z,2.70
2023-04-26T13:01:32.140Z,0.60
2023-04-26T13:04:00.984Z,1.00
2023-04-26T13:06:28.859Z,1.30
2023-04-26T13:08:56.301Z,0.73
2023-04-26T13:11:23.401Z,1.13
2023-04-26T13:13:50.287Z,1.03
2023-04-26T13:16:17.286Z,0.80
2023-04-26T13:18:44.171Z,0.93
2023-04-26T13:21:11.084Z,1.20
2023-04-26T13:23:37.933Z,0.73
2023-04-26T13:26:04.822Z,0.90
2023-04-26T13:28:31.770Z,0.67
2023-04-26T13:30:59.719Z,0.80
2023-04-26T13:33:26.600Z,1.07
2023-04-26T13:35:53.528Z,0.90
2023-04-26T13:38:20.459Z,1.10
2023-04-26T13:40:47.405Z,1.43
2023-04-26T13:43:14.323Z,0.77
2023-04-26T13:45:41.275Z,1.00
2023-04-26T13:48:08.162Z,1.23
2023-04-26T13:50:37.738Z,0.70
2023-04-26T13:53:04.768Z,0.90
2023-04-26T13:55:31.880Z,0.80
2023-04-26T13:57:58.800Z,0.87
2023-04-26T14:00:25.946Z,0.93
2023-04-26T14:02:53.003Z,1.13
2023-04-26T14:05:20.172Z,0.87
2023-04-26T14:07:47.167Z,1.07
2023-04-26T14:10:14.355Z,1.33
2023-04-26T14:12:41.590Z,1.03
2023-04-26T14:15:08.763Z,1.90
2023-04-26T14:17:35.932Z,1.27
2023-04-26T14:20:02.874Z,1.37
2023-04-26T14:22:29.779Z,1.40
2023-04-26T14:24:56.835Z,1.73
2023-04-26T14:27:23.674Z,1.03
2023-04-26T14:29:50.520Z,1.67
2023-04-26T14:32:17.431Z,1.50
2023-04-26T14:34:44.208Z,1.20
2023-04-26T14:37:11.083Z,2.33
2023-04-26T14:39:37.950Z,2.57
2023-04-26T14:42:05.016Z,1.37
2023-04-26T14:44:31.842Z,2.10
2023-04-26T14:46:58.873Z,1.50
2023-04-26T14:49:25.959Z,1.27
2023-04-26T14:51:53.623Z,1.30
2023-04-26T14:54:21.359Z,1.70
2023-04-26T14:56:48.964Z,1.87
2023-04-26T14:59:31.821Z,1.55
2023-04-26T15:01:58.774Z,1.33
2023-04-26T15:04:25.676Z,1.80
2023-04-26T15:06:52.762Z,14.23
2023-04-26T15:09:19.592Z,49.60
2023-04-26T15:11:46.614Z,2.20
2023-04-26T15:14:13.473Z,2.50
2023-04-26T15:16:41.109Z,3.53
2023-04-26T15:19:08.005Z,3.50
2023-04-26T15:21:34.841Z,1.17
2023-04-26T15:24:01.678Z,2.77
2023-04-26T15:26:31.186Z,4.00
2023-04-26T15:28:57.984Z,2.07
2023-04-26T15:31:24.830Z,2.50
2023-04-26T15:33:54.116Z,1.97
2023-04-26T15:36:22.112Z,3.70
2023-04-26T15:38:49.776Z,5.47
2023-04-26T15:41:16.660Z,1.27
2023-04-26T15:43:43.542Z,5.03
2023-04-26T15:46:12.988Z,1.87
2023-04-26T15:48:40.180Z,1.47
2023-04-26T15:51:07.281Z,1.10
2023-04-26T15:53:34.089Z,2.70
2023-04-26T15:56:01.506Z,2.50
2023-04-26T15:58:28.371Z,2.20
2023-04-26T16:00:55.229Z,1.67
2023-04-26T16:03:22.304Z,2.43
2023-04-26T16:05:49.434Z,1.90
2023-04-26T16:08:27.677Z,1.70
2023-04-26T16:11:00.866Z,4.20
2023-04-26T16:13:27.885Z,4.90
2023-04-26T16:15:55.145Z,3.00
2023-04-26T16:18:22.220Z,1.73
2023-04-26T16:20:49.713Z,2.00
2023-04-26T16:23:17.010Z,1.63
2023-04-26T16:25:44.305Z,3.47
2023-04-26T16:28:11.918Z,3.00
2023-04-26T16:30:39.150Z,3.13
2023-04-26T16:33:10.151Z,3.07
2023-04-26T16:35:37.206Z,2.60
2023-04-26T16:38:04.268Z,5.17
2023-04-26T16:40:31.352Z,5.20
2023-04-26T16:42:58.355Z,4.00
2023-04-26T16:45:25.212Z,2.60
2023-04-26T16:47:52.211Z,2.43
2023-04-26T16:50:19.037Z,2.40
2023-04-26T16:52:45.987Z,2.90
2023-04-26T16:55:13.096Z,1.30
2023-04-26T16:57:40.042Z,1.03
2023-04-26T17:00:10.232Z,1.63
2023-04-26T17:02:37.340Z,1.70
2023-04-26T17:05:04.442Z,1.43
2023-04-26T17:07:31.391Z,1.40
2023-04-26T17:09:58.186Z,2.10
2023-04-26T17:12:25.261Z,1.80
2023-04-26T17:14:52.046Z,1.70
2023-04-26T17:17:18.910Z,1.87
2023-04-26T17:19:45.879Z,1.80
2023-04-26T17:22:12.718Z,1.77
2023-04-26T17:24:40.135Z,1.60
2023-04-26T17:27:06.956Z,2.43
2023-04-26T17:29:33.872Z,3.10
2023-04-26T17:32:01.161Z,3.70
2023-04-26T17:34:28.146Z,5.33
2023-04-26T17:36:55.017Z,3.73
2023-04-26T17:39:21.871Z,2.33
2023-04-26T17:41:48.844Z,2.20
2023-04-26T17:44:15.948Z,2.83
2023-04-26T17:46:42.871Z,8.00
2023-04-26T17:49:09.935Z,13.03
2023-04-26T17:51:36.892Z,11.43
2023-04-26T17:54:03.747Z,7.20
2023-04-26T17:56:30.730Z,5.03
2023-04-26T17:58:57.559Z,20.70
2023-04-26T18:01:24.418Z,29.20
2023-04-26T18:03:51.594Z,16.70
2023-04-26T18:06:19.933Z,10.13
2023-04-26T18:08:47.299Z,9.87
2023-04-26T18:11:14.094Z,10.53
2023-04-26T18:13:41.263Z,8.73
2023-04-26T18:16:08.046Z,4.67
2023-04-26T18:18:34.885Z,2.10
2023-04-26T18:21:01.841Z,2.50
2023-04-26T18:23:28.627Z,4.87
2023-04-26T18:25:55.831Z,9.53
2023-04-26T18:28:22.936Z,10.93
2023-04-26T18:30:49.793Z,9.70
2023-04-26T18:33:16.945Z,10.67
2023-04-26T18:35:43.837Z,10.37
2023-04-26T18:38:10.799Z,32.60
2023-04-26T18:40:37.562Z,27.73
2023-04-26T18:43:04.699Z,13.07
2023-04-26T18:45:31.690Z,13.97
2023-04-26T18:47:58.667Z,14.47
2023-04-26T18:50:26.181Z,14.23
2023-04-26T18:52:53.142Z,13.73
2023-04-26T18:55:20.002Z,17.63
2023-04-26T18:57:47.017Z,55.03
2023-04-26T19:00:14.343Z,47.83
2023-04-26T19:02:41.449Z,26.30
2023-04-26T19:05:10.153Z,15.93
2023-04-26T19:07:37.394Z,10.80
2023-04-26T19:10:04.842Z,4.60
2023-04-26T19:12:31.686Z,5.20
2023-04-26T19:14:58.724Z,5.10
2023-04-26T19:17:26.451Z,5.80
2023-04-26T19:19:53.490Z,4.27
2023-04-26T19:22:20.310Z,4.30
2023-04-26T19:24:50.870Z,4.70
2023-04-26T19:27:18.129Z,5.27
2023-04-26T19:29:44.927Z,5.33
2023-04-26T19:32:12.507Z,6.27
2023-04-26T19:34:40.964Z,6.40
2023-04-26T19:37:07.934Z,6.17
2023-04-26T19:39:34.809Z,6.07
2023-04-26T19:42:01.714Z,6.23
2023-04-26T19:44:28.618Z,5.97
2023-04-26T19:46:55.677Z,6.23
2023-04-26T19:49:22.850Z,6.57
2023-04-26T19:51:49.642Z,7.50
2023-04-26T19:54:19.345Z,6.30
2023-04-26T19:56:46.223Z,7.53
2023-04-26T19:59:13.758Z,8.03
2023-04-26T20:01:40.721Z,8.17
2023-04-26T20:04:07.810Z,9.00
2023-04-26T20:06:34.757Z,10.23
2023-04-26T20:09:01.817Z,9.77
2023-04-26T20:11:28.741Z,10.43
2023-04-26T20:13:55.900Z,12.20
2023-04-26T20:16:23.115Z,11.00
2023-04-26T20:18:49.953Z,9.17
2023-04-26T20:21:16.905Z,7.33
2023-04-26T20:23:43.936Z,8.10
2023-04-26T20:26:11.287Z,7.47
2023-04-26T20:28:40.019Z,8.90
2023-04-26T20:31:07.419Z,8.80
2023-04-26T20:33:34.357Z,7.43
2023-04-26T20:36:01.238Z,7.17
2023-04-26T20:38:28.515Z,7.33
2023-04-26T20:40:55.471Z,8.23
2023-04-26T20:43:22.866Z,6.53
2023-04-26T20:45:50.884Z,6.47
2023-04-26T20:48:18.044Z,5.17
2023-04-26T20:50:44.928Z,5.37
2023-04-26T20:53:11.753Z,5.03
2023-04-26T20:55:39.059Z,4.37
2023-04-26T20:58:06.075Z,4.07
2023-04-26T21:00:32.893Z,4.13
2023-04-26T21:03:00.036Z,4.87
2023-04-26T21:05:27.035Z,7.00
2023-04-26T21:07:53.940Z,6.67
2023-04-26T21:10:20.845Z,6.63
2023-04-26T21:12:47.746Z,6.17
2023-04-26T21:15:14.721Z,5.20
2023-04-26T21:17:41.558Z,7.03
2023-04-26T21:20:08.880Z,5.50
2023-04-26T21:22:36.051Z,5.67
2023-04-26T21:25:02.981Z,6.57
2023-04-26T21:27:29.931Z,5.87
2023-04-26T21:29:57.332Z,5.63
2023-04-26T21:32:24.176Z,5.27
2023-04-26T21:34:51.290Z,5.37
2023-04-26T21:37:18.236Z,6.70
2023-04-26T21:39:45.018Z,6.50
2023-04-26T21:42:12.269Z,5.37
2023-04-26T21:44:39.052Z,5.20
2023-04-26T21:47:06.026Z,4.70
2023-04-26T21:49:33.551Z,4.40
2023-04-26T21:52:00.629Z,4.37
2023-04-26T21:54:27.534Z,4.40
2023-04-26T21:56:54.397Z,3.93
2023-04-26T21:59:21.191Z,4.50
2023-04-26T22:01:48.359Z,4.00
2023-04-26T22:04:15.456Z,4.20
2023-04-26T22:06:42.476Z,3.67
2023-04-26T22:09:10.373Z,4.20
2023-04-26T22:11:37.332Z,4.00
2023-04-26T22:14:04.282Z,4.10
2023-04-26T22:16:32.158Z,3.30
2023-04-26T22:18:59.129Z,3.63
2023-04-26T22:21:26.962Z,3.50
2023-04-26T22:23:53.864Z,4.10
2023-04-26T22:26:21.435Z,3.40
2023-04-26T22:28:48.241Z,3.50
2023-04-26T22:31:15.111Z,3.93
2023-04-26T22:33:42.017Z,3.40
2023-04-26T22:36:09.175Z,3.90
2023-04-26T22:38:36.192Z,3.90
2023-04-26T22:41:04.420Z,3.00
2023-04-26T22:43:31.415Z,3.50
2023-04-26T22:45:58.235Z,3.37
2023-04-26T22:48:25.244Z,3.60
2023-04-26T22:50:52.079Z,3.50
2023-04-26T22:53:19.009Z,4.50
2023-04-26T22:55:46.099Z,7.10
2023-04-26T22:58:13.079Z,5.47
2023-04-26T23:00:39.864Z,3.20
2023-04-26T23:03:06.869Z,3.53
2023-04-26T23:05:33.688Z,3.57
2023-04-26T23:08:00.581Z,3.90
2023-04-26T23:10:27.559Z,3.63
2023-04-26T23:12:55.488Z,3.83
2023-04-26T23:15:22.385Z,3.67
2023-04-26T23:17:49.452Z,3.80
2023-04-26T23:20:16.502Z,3.90
2023-04-26T23:22:43.650Z,3.73
2023-04-26T23:25:10.771Z,4.20
2023-04-26T23:27:37.883Z,4.43
2023-04-26T23:30:05.261Z,3.93
2023-04-26T23:32:32.163Z,4.20
2023-04-26T23:34:59.172Z,4.70
2023-04-26T23:37:25.948Z,4.07
2023-04-26T23:39:52.806Z,4.40
2023-04-26T23:42:19.715Z,4.37
2023-04-26T23:44:46.528Z,3.83
2023-04-26T23:47:13.339Z,4.70
2023-04-26T23:49:40.233Z,4.00
2023-04-26T23:52:07.432Z,4.97
2023-04-26T23:54:34.210Z,4.23
2023-04-26T23:57:01.347Z,5.17
2023-04-26T23:59:28.162Z,4.53
